sensor_id;sensor_type;location;lat;lon;timestamp;P1;durP1;ratioP1;P2;durP2;ratioP2
52962;SDS011;38827;53.024;6.596;2023-09-18T00:01:40;28.77;;;21.92;;
52962;SDS011;38827;53.024;6.596;2023-09-18T00:04:06;27.98;;;21.33;;
52962;SDS011;38827;53.024;6.596;2023-09-18T00:06:34;28.25;;;20.40;;
52962;SDS011;38827;53.024;6.596;2023-09-18T00:09:00;26.33;;;21.27;;
52962;SDS011;38827;53.024;6.596;2023-09-18T00:11:26;27.27;;;20.38;;
52962;SDS011;38827;53.024;6.596;2023-09-18T00:13:52;24.17;;;19.57;;
52962;SDS011;38827;53.024;6.596;2023-09-18T00:16:18;25.48;;;20.13;;
52962;SDS011;38827;53.024;6.596;2023-09-18T00:18:43;24.98;;;19.90;;
52962;SDS011;38827;53.024;6.596;2023-09-18T00:21:10;24.40;;;19.45;;
52962;SDS011;38827;53.024;6.596;2023-09-18T00:23:37;25.10;;;19.58;;
52962;SDS011;38827;53.024;6.596;2023-09-18T00:28:28;22.30;;;18.17;;
52962;SDS011;38827;53.024;6.596;2023-09-18T00:30:54;23.02;;;19.52;;
52962;SDS011;38827;53.024;6.596;2023-09-18T00:33:20;21.27;;;17.50;;
52962;SDS011;38827;53.024;6.596;2023-09-18T00:35:46;24.67;;;19.67;;
52962;SDS011;38827;53.024;6.596;2023-09-18T00:38:13;24.00;;;18.90;;
52962;SDS011;38827;53.024;6.596;2023-09-18T00:40:42;24.77;;;18.83;;
52962;SDS011;38827;53.024;6.596;2023-09-18T00:43:08;25.10;;;19.58;;
52962;SDS011;38827;53.024;6.596;2023-09-18T00:45:36;24.70;;;19.05;;
52962;SDS011;38827;53.024;6.596;2023-09-18T00:48:06;26.40;;;19.90;;
52962;SDS011;38827;53.024;6.596;2023-09-18T00:50:32;27.42;;;18.95;;
52962;SDS011;38827;53.024;6.596;2023-09-18T00:52:58;22.52;;;18.58;;
52962;SDS011;38827;53.024;6.596;2023-09-18T00:55:26;23.88;;;18.33;;
52962;SDS011;38827;53.024;6.596;2023-09-18T00:57:55;21.95;;;18.60;;
52962;SDS011;38827;53.024;6.596;2023-09-18T01:00:21;22.38;;;18.25;;
52962;SDS011;38827;53.024;6.596;2023-09-18T01:02:47;27.33;;;20.70;;
52962;SDS011;38827;53.024;6.596;2023-09-18T01:05:16;28.45;;;19.33;;
52962;SDS011;38827;53.024;6.596;2023-09-18T01:07:42;27.88;;;20.13;;
52962;SDS011;38827;53.024;6.596;2023-09-18T01:10:09;27.58;;;20.98;;
52962;SDS011;38827;53.024;6.596;2023-09-18T01:12:55;30.75;;;22.25;;
52962;SDS011;38827;53.024;6.596;2023-09-18T01:15:32;30.95;;;23.40;;
52962;SDS011;38827;53.024;6.596;2023-09-18T01:20:34;30.25;;;22.95;;
52962;SDS011;38827;53.024;6.596;2023-09-18T01:22:59;34.22;;;24.92;;
52962;SDS011;38827;53.024;6.596;2023-09-18T01:25:25;33.60;;;24.52;;
52962;SDS011;38827;53.024;6.596;2023-09-18T01:27:51;33.72;;;25.23;;
52962;SDS011;38827;53.024;6.596;2023-09-18T01:30:17;35.53;;;25.30;;
52962;SDS011;38827;53.024;6.596;2023-09-18T01:32:43;34.10;;;25.10;;
52962;SDS011;38827;53.024;6.596;2023-09-18T01:35:14;33.33;;;25.23;;
52962;SDS011;38827;53.024;6.596;2023-09-18T01:40:07;33.37;;;25.63;;
52962;SDS011;38827;53.024;6.596;2023-09-18T01:42:33;34.80;;;26.40;;
52962;SDS011;38827;53.024;6.596;2023-09-18T01:45:00;35.75;;;25.70;;
52962;SDS011;38827;53.024;6.596;2023-09-18T01:47:26;36.60;;;26.38;;
52962;SDS011;38827;53.024;6.596;2023-09-18T01:49:52;33.45;;;25.08;;
52962;SDS011;38827;53.024;6.596;2023-09-18T01:52:17;33.65;;;26.20;;
52962;SDS011;38827;53.024;6.596;2023-09-18T01:54:43;36.28;;;24.40;;
52962;SDS011;38827;53.024;6.596;2023-09-18T01:57:09;34.15;;;25.55;;
52962;SDS011;38827;53.024;6.596;2023-09-18T01:59:35;33.47;;;25.33;;
52962;SDS011;38827;53.024;6.596;2023-09-18T02:02:00;34.03;;;25.85;;
52962;SDS011;38827;53.024;6.596;2023-09-18T02:04:28;36.33;;;25.02;;
52962;SDS011;38827;53.024;6.596;2023-09-18T02:06:55;32.03;;;25.63;;
52962;SDS011;38827;53.024;6.596;2023-09-18T02:09:22;35.22;;;27.08;;
52962;SDS011;38827;53.024;6.596;2023-09-18T02:11:47;34.03;;;27.38;;
52962;SDS011;38827;53.024;6.596;2023-09-18T02:14:13;38.03;;;27.60;;
52962;SDS011;38827;53.024;6.596;2023-09-18T02:16:41;35.42;;;26.45;;
52962;SDS011;38827;53.024;6.596;2023-09-18T02:19:09;38.13;;;27.98;;
52962;SDS011;38827;53.024;6.596;2023-09-18T02:21:35;37.60;;;28.05;;
52962;SDS011;38827;53.024;6.596;2023-09-18T02:24:02;37.77;;;27.67;;
52962;SDS011;38827;53.024;6.596;2023-09-18T02:26:28;36.58;;;29.15;;
52962;SDS011;38827;53.024;6.596;2023-09-18T02:28:54;35.20;;;28.73;;
52962;SDS011;38827;53.024;6.596;2023-09-18T02:31:23;39.47;;;30.33;;
52962;SDS011;38827;53.024;6.596;2023-09-18T02:33:48;35.15;;;28.38;;
52962;SDS011;38827;53.024;6.596;2023-09-18T02:36:15;36.38;;;28.40;;
52962;SDS011;38827;53.024;6.596;2023-09-18T02:38:41;36.65;;;28.15;;
52962;SDS011;38827;53.024;6.596;2023-09-18T02:41:08;36.90;;;27.30;;
52962;SDS011;38827;53.024;6.596;2023-09-18T02:43:34;34.50;;;27.48;;
52962;SDS011;38827;53.024;6.596;2023-09-18T02:46:00;35.55;;;27.67;;
52962;SDS011;38827;53.024;6.596;2023-09-18T02:48:26;33.08;;;25.83;;
52962;SDS011;38827;53.024;6.596;2023-09-18T02:50:51;37.08;;;25.60;;
52962;SDS011;38827;53.024;6.596;2023-09-18T02:53:18;28.10;;;24.48;;
52962;SDS011;38827;53.024;6.596;2023-09-18T02:55:44;32.80;;;24.27;;
52962;SDS011;38827;53.024;6.596;2023-09-18T02:58:14;30.85;;;24.27;;
52962;SDS011;38827;53.024;6.596;2023-09-18T03:00:41;29.92;;;24.63;;
52962;SDS011;38827;53.024;6.596;2023-09-18T03:03:11;29.35;;;24.25;;
52962;SDS011;38827;53.024;6.596;2023-09-18T03:05:38;27.55;;;23.80;;
52962;SDS011;38827;53.024;6.596;2023-09-18T03:08:04;29.05;;;22.70;;
52962;SDS011;38827;53.024;6.596;2023-09-18T03:10:33;24.30;;;21.73;;
52962;SDS011;38827;53.024;6.596;2023-09-18T03:12:59;25.17;;;21.75;;
52962;SDS011;38827;53.024;6.596;2023-09-18T03:15:26;26.13;;;21.70;;
52962;SDS011;38827;53.024;6.596;2023-09-18T03:17:51;24.35;;;20.95;;
52962;SDS011;38827;53.024;6.596;2023-09-18T03:20:17;24.88;;;21.52;;
52962;SDS011;38827;53.024;6.596;2023-09-18T03:22:43;23.58;;;20.00;;
52962;SDS011;38827;53.024;6.596;2023-09-18T03:25:08;21.65;;;18.85;;
52962;SDS011;38827;53.024;6.596;2023-09-18T03:27:35;22.35;;;19.92;;
52962;SDS011;38827;53.024;6.596;2023-09-18T03:30:00;25.98;;;20.20;;
52962;SDS011;38827;53.024;6.596;2023-09-18T03:32:26;23.05;;;20.10;;
52962;SDS011;38827;53.024;6.596;2023-09-18T03:34:52;22.65;;;19.98;;
52962;SDS011;38827;53.024;6.596;2023-09-18T03:37:18;21.83;;;18.88;;
52962;SDS011;38827;53.024;6.596;2023-09-18T03:39:44;21.58;;;18.63;;
52962;SDS011;38827;53.024;6.596;2023-09-18T03:42:10;21.90;;;18.05;;
52962;SDS011;38827;53.024;6.596;2023-09-18T03:44:35;19.45;;;17.38;;
52962;SDS011;38827;53.024;6.596;2023-09-18T03:47:05;21.48;;;17.35;;
52962;SDS011;38827;53.024;6.596;2023-09-18T03:49:31;21.53;;;17.87;;
52962;SDS011;38827;53.024;6.596;2023-09-18T03:51:57;19.48;;;17.33;;
52962;SDS011;38827;53.024;6.596;2023-09-18T03:54:22;19.08;;;17.08;;
52962;SDS011;38827;53.024;6.596;2023-09-18T03:56:48;18.95;;;16.95;;
52962;SDS011;38827;53.024;6.596;2023-09-18T03:59:14;21.13;;;16.67;;
52962;SDS011;38827;53.024;6.596;2023-09-18T04:01:39;18.65;;;14.93;;
52962;SDS011;38827;53.024;6.596;2023-09-18T04:04:05;19.10;;;16.25;;
52962;SDS011;38827;53.024;6.596;2023-09-18T04:06:41;19.38;;;15.80;;
52962;SDS011;38827;53.024;6.596;2023-09-18T04:09:08;18.58;;;15.02;;
52962;SDS011;38827;53.024;6.596;2023-09-18T04:11:34;19.63;;;14.80;;
52962;SDS011;38827;53.024;6.596;2023-09-18T04:14:00;17.80;;;15.07;;
52962;SDS011;38827;53.024;6.596;2023-09-18T04:16:28;18.80;;;15.10;;
52962;SDS011;38827;53.024;6.596;2023-09-18T04:18:54;20.42;;;15.00;;
52962;SDS011;38827;53.024;6.596;2023-09-18T04:21:23;18.58;;;16.08;;
52962;SDS011;38827;53.024;6.596;2023-09-18T04:26:20;17.27;;;14.13;;
52962;SDS011;38827;53.024;6.596;2023-09-18T04:28:46;18.38;;;14.60;;
52962;SDS011;38827;53.024;6.596;2023-09-18T04:31:12;19.75;;;14.63;;
52962;SDS011;38827;53.024;6.596;2023-09-18T04:33:38;16.38;;;14.45;;
52962;SDS011;38827;53.024;6.596;2023-09-18T04:36:04;20.98;;;15.20;;
52962;SDS011;38827;53.024;6.596;2023-09-18T04:38:30;19.30;;;14.48;;
52962;SDS011;38827;53.024;6.596;2023-09-18T04:41:01;17.67;;;14.02;;
52962;SDS011;38827;53.024;6.596;2023-09-18T04:43:27;15.88;;;13.98;;
52962;SDS011;38827;53.024;6.596;2023-09-18T04:53:17;15.65;;;12.23;;
52962;SDS011;38827;53.024;6.596;2023-09-18T04:55:43;14.73;;;13.18;;
52962;SDS011;38827;53.024;6.596;2023-09-18T04:58:09;16.08;;;12.52;;
52962;SDS011;38827;53.024;6.596;2023-09-18T05:00:34;15.68;;;12.13;;
52962;SDS011;38827;53.024;6.596;2023-09-18T05:03:00;13.15;;;11.82;;
52962;SDS011;38827;53.024;6.596;2023-09-18T05:05:27;13.98;;;11.32;;
52962;SDS011;38827;53.024;6.596;2023-09-18T05:07:54;16.92;;;11.45;;
52962;SDS011;38827;53.024;6.596;2023-09-18T05:10:20;12.70;;;11.35;;
52962;SDS011;38827;53.024;6.596;2023-09-18T05:12:45;20.17;;;11.50;;
52962;SDS011;38827;53.024;6.596;2023-09-18T05:15:11;13.00;;;11.05;;
52962;SDS011;38827;53.024;6.596;2023-09-18T05:17:47;12.45;;;11.02;;
52962;SDS011;38827;53.024;6.596;2023-09-18T05:20:17;13.43;;;10.88;;
52962;SDS011;38827;53.024;6.596;2023-09-18T05:22:43;12.88;;;11.35;;
52962;SDS011;38827;53.024;6.596;2023-09-18T05:25:09;14.73;;;11.57;;
52962;SDS011;38827;53.024;6.596;2023-09-18T05:27:35;15.00;;;11.70;;
52962;SDS011;38827;53.024;6.596;2023-09-18T05:30:09;15.27;;;11.85;;
52962;SDS011;38827;53.024;6.596;2023-09-18T05:32:53;15.52;;;11.77;;
52962;SDS011;38827;53.024;6.596;2023-09-18T05:35:19;15.85;;;12.05;;
52962;SDS011;38827;53.024;6.596;2023-09-18T05:37:46;13.50;;;11.00;;
52962;SDS011;38827;53.024;6.596;2023-09-18T05:40:12;15.88;;;11.10;;
52962;SDS011;38827;53.024;6.596;2023-09-18T05:45:08;12.63;;;10.00;;
52962;SDS011;38827;53.024;6.596;2023-09-18T05:47:34;15.80;;;11.20;;
52962;SDS011;38827;53.024;6.596;2023-09-18T05:50:01;13.38;;;10.07;;
52962;SDS011;38827;53.024;6.596;2023-09-18T05:52:29;13.40;;;10.25;;
52962;SDS011;38827;53.024;6.596;2023-09-18T05:54:58;15.70;;;10.40;;
52962;SDS011;38827;53.024;6.596;2023-09-18T05:57:24;15.40;;;10.20;;
52962;SDS011;38827;53.024;6.596;2023-09-18T05:59:51;10.00;;;9.00;;
52962;SDS011;38827;53.024;6.596;2023-09-18T06:02:17;13.25;;;9.98;;
52962;SDS011;38827;53.024;6.596;2023-09-18T06:04:43;11.98;;;9.82;;
52962;SDS011;38827;53.024;6.596;2023-09-18T06:07:17;13.90;;;9.13;;
52962;SDS011;38827;53.024;6.596;2023-09-18T06:23:19;12.50;;;8.38;;
52962;SDS011;38827;53.024;6.596;2023-09-18T06:35:40;12.35;;;8.40;;
52962;SDS011;38827;53.024;6.596;2023-09-18T06:44:53;13.60;;;8.82;;
52962;SDS011;38827;53.024;6.596;2023-09-18T06:47:18;16.70;;;8.67;;
52962;SDS011;38827;53.024;6.596;2023-09-18T06:49:44;13.70;;;8.93;;
52962;SDS011;38827;53.024;6.596;2023-09-18T06:52:10;16.27;;;9.10;;
52962;SDS011;38827;53.024;6.596;2023-09-18T06:54:35;15.80;;;8.75;;
52962;SDS011;38827;53.024;6.596;2023-09-18T06:57:01;13.52;;;9.40;;
52962;SDS011;38827;53.024;6.596;2023-09-18T06:59:28;12.82;;;9.15;;
52962;SDS011;38827;53.024;6.596;2023-09-18T07:04:25;12.32;;;9.32;;
52962;SDS011;38827;53.024;6.596;2023-09-18T07:06:52;16.42;;;9.57;;
52962;SDS011;38827;53.024;6.596;2023-09-18T07:09:24;26.08;;;11.23;;
52962;SDS011;38827;53.024;6.596;2023-09-18T07:11:51;30.45;;;13.15;;
52962;SDS011;38827;53.024;6.596;2023-09-18T07:14:17;27.33;;;12.45;;
52962;SDS011;38827;53.024;6.596;2023-09-18T07:17:01;18.70;;;12.80;;
52962;SDS011;38827;53.024;6.596;2023-09-18T07:19:33;15.95;;;11.75;;
52962;SDS011;38827;53.024;6.596;2023-09-18T07:22:39;19.73;;;14.32;;
52962;SDS011;38827;53.024;6.596;2023-09-18T07:35:52;16.90;;;13.05;;
52962;SDS011;38827;53.024;6.596;2023-09-18T07:38:23;18.55;;;13.48;;
52962;SDS011;38827;53.024;6.596;2023-09-18T07:40:59;19.75;;;13.50;;
52962;SDS011;38827;53.024;6.596;2023-09-18T07:43:25;17.40;;;11.80;;
52962;SDS011;38827;53.024;6.596;2023-09-18T07:46:31;15.73;;;11.00;;
52962;SDS011;38827;53.024;6.596;2023-09-18T07:48:59;15.38;;;10.30;;
52962;SDS011;38827;53.024;6.596;2023-09-18T07:54:30;13.95;;;10.48;;
52962;SDS011;38827;53.024;6.596;2023-09-18T07:57:09;13.05;;;9.63;;
52962;SDS011;38827;53.024;6.596;2023-09-18T07:59:38;12.27;;;10.57;;
52962;SDS011;38827;53.024;6.596;2023-09-18T08:12:29;14.45;;;10.52;;
52962;SDS011;38827;53.024;6.596;2023-09-18T08:17:49;14.23;;;10.65;;
52962;SDS011;38827;53.024;6.596;2023-09-18T08:20:18;12.33;;;9.53;;
52962;SDS011;38827;53.024;6.596;2023-09-18T08:29:29;16.20;;;10.68;;
52962;SDS011;38827;53.024;6.596;2023-09-18T08:32:00;15.57;;;11.18;;
52962;SDS011;38827;53.024;6.596;2023-09-18T08:41:02;15.77;;;10.82;;
52962;SDS011;38827;53.024;6.596;2023-09-18T08:52:19;14.85;;;10.43;;
52962;SDS011;38827;53.024;6.596;2023-09-18T08:54:46;15.27;;;11.07;;
52962;SDS011;38827;53.024;6.596;2023-09-18T08:57:12;13.80;;;11.43;;
52962;SDS011;38827;53.024;6.596;2023-09-18T08:59:39;14.50;;;11.60;;
52962;SDS011;38827;53.024;6.596;2023-09-18T09:02:06;15.85;;;11.88;;
52962;SDS011;38827;53.024;6.596;2023-09-18T09:07:46;14.73;;;12.07;;
52962;SDS011;38827;53.024;6.596;2023-09-18T09:29:57;17.50;;;12.65;;
52962;SDS011;38827;53.024;6.596;2023-09-18T09:32:29;18.77;;;14.48;;
52962;SDS011;38827;53.024;6.596;2023-09-18T09:40:53;17.95;;;14.15;;
52962;SDS011;38827;53.024;6.596;2023-09-18T09:43:25;18.35;;;13.70;;
52962;SDS011;38827;53.024;6.596;2023-09-18T09:45:57;20.30;;;14.98;;
52962;SDS011;38827;53.024;6.596;2023-09-18T09:53:08;19.40;;;13.85;;
52962;SDS011;38827;53.024;6.596;2023-09-18T10:10:00;14.65;;;11.05;;
52962;SDS011;38827;53.024;6.596;2023-09-18T10:12:41;13.82;;;11.50;;
52962;SDS011;38827;53.024;6.596;2023-09-18T10:15:11;13.68;;;11.48;;
52962;SDS011;38827;53.024;6.596;2023-09-18T10:20:37;15.15;;;10.77;;
52962;SDS011;38827;53.024;6.596;2023-09-18T10:23:42;11.10;;;10.00;;
52962;SDS011;38827;53.024;6.596;2023-09-18T10:26:20;12.82;;;11.43;;
52962;SDS011;38827;53.024;6.596;2023-09-18T10:28:55;12.43;;;9.52;;
52962;SDS011;38827;53.024;6.596;2023-09-18T10:31:28;10.35;;;9.00;;
52962;SDS011;38827;53.024;6.596;2023-09-18T10:33:55;9.35;;;8.45;;
52962;SDS011;38827;53.024;6.596;2023-09-18T10:36:22;9.93;;;7.45;;
52962;SDS011;38827;53.024;6.596;2023-09-18T10:42:54;6.90;;;6.22;;
52962;SDS011;38827;53.024;6.596;2023-09-18T10:52:58;5.80;;;4.63;;
52962;SDS011;38827;53.024;6.596;2023-09-18T11:32:10;7.05;;;3.78;;
52962;SDS011;38827;53.024;6.596;2023-09-18T11:38:04;7.22;;;3.22;;
52962;SDS011;38827;53.024;6.596;2023-09-18T11:49:20;4.93;;;3.20;;
52962;SDS011;38827;53.024;6.596;2023-09-18T11:51:53;6.20;;;3.45;;
52962;SDS011;38827;53.024;6.596;2023-09-18T11:58:15;5.22;;;4.00;;
52962;SDS011;38827;53.024;6.596;2023-09-18T12:00:44;7.47;;;3.37;;
52962;SDS011;38827;53.024;6.596;2023-09-18T12:10:21;8.52;;;3.40;;
52962;SDS011;38827;53.024;6.596;2023-09-18T12:21:47;4.80;;;2.60;;
52962;SDS011;38827;53.024;6.596;2023-09-18T12:24:23;5.70;;;2.80;;
52962;SDS011;38827;53.024;6.596;2023-09-18T12:26:51;6.47;;;3.05;;
52962;SDS011;38827;53.024;6.596;2023-09-18T12:29:18;4.55;;;2.78;;
52962;SDS011;38827;53.024;6.596;2023-09-18T12:31:47;8.57;;;2.80;;
52962;SDS011;38827;53.024;6.596;2023-09-18T12:34:16;4.80;;;2.90;;
52962;SDS011;38827;53.024;6.596;2023-09-18T12:36:46;4.28;;;2.53;;
52962;SDS011;38827;53.024;6.596;2023-09-18T12:39:13;3.97;;;2.67;;
52962;SDS011;38827;53.024;6.596;2023-09-18T12:41:45;4.95;;;2.55;;
52962;SDS011;38827;53.024;6.596;2023-09-18T12:44:12;5.93;;;3.00;;
52962;SDS011;38827;53.024;6.596;2023-09-18T12:46:40;3.50;;;2.72;;
52962;SDS011;38827;53.024;6.596;2023-09-18T12:49:19;3.78;;;2.70;;
52962;SDS011;38827;53.024;6.596;2023-09-18T12:51:57;5.07;;;2.50;;
52962;SDS011;38827;53.024;6.596;2023-09-18T12:54:42;2.55;;;2.30;;
52962;SDS011;38827;53.024;6.596;2023-09-18T12:57:19;4.38;;;2.33;;
52962;SDS011;38827;53.024;6.596;2023-09-18T12:59:45;6.05;;;2.35;;
52962;SDS011;38827;53.024;6.596;2023-09-18T13:02:16;6.70;;;2.40;;
52962;SDS011;38827;53.024;6.596;2023-09-18T13:04:50;3.63;;;2.08;;
52962;SDS011;38827;53.024;6.596;2023-09-18T13:07:16;3.05;;;2.13;;
52962;SDS011;38827;53.024;6.596;2023-09-18T13:09:42;3.85;;;2.30;;
52962;SDS011;38827;53.024;6.596;2023-09-18T13:12:11;4.70;;;2.40;;
52962;SDS011;38827;53.024;6.596;2023-09-18T13:17:35;3.35;;;2.65;;
52962;SDS011;38827;53.024;6.596;2023-09-18T13:20:06;4.65;;;3.30;;
52962;SDS011;38827;53.024;6.596;2023-09-18T13:22:35;6.82;;;3.55;;
52962;SDS011;38827;53.024;6.596;2023-09-18T13:25:10;4.57;;;3.37;;
52962;SDS011;38827;53.024;6.596;2023-09-18T13:27:36;4.88;;;3.67;;
52962;SDS011;38827;53.024;6.596;2023-09-18T13:32:35;4.00;;;2.90;;
52962;SDS011;38827;53.024;6.596;2023-09-18T13:35:04;6.10;;;3.05;;
52962;SDS011;38827;53.024;6.596;2023-09-18T13:37:33;4.97;;;2.72;;
52962;SDS011;38827;53.024;6.596;2023-09-18T13:39:59;6.60;;;2.92;;
52962;SDS011;38827;53.024;6.596;2023-09-18T13:42:31;7.63;;;2.95;;
52962;SDS011;38827;53.024;6.596;2023-09-18T13:44:59;6.07;;;2.60;;
52962;SDS011;38827;53.024;6.596;2023-09-18T13:47:34;5.93;;;2.50;;
52962;SDS011;38827;53.024;6.596;2023-09-18T13:50:01;5.63;;;2.33;;
52962;SDS011;38827;53.024;6.596;2023-09-18T13:52:31;5.50;;;2.95;;
52962;SDS011;38827;53.024;6.596;2023-09-18T13:54:58;3.55;;;2.22;;
52962;SDS011;38827;53.024;6.596;2023-09-18T13:57:24;5.50;;;2.30;;
52962;SDS011;38827;53.024;6.596;2023-09-18T13:59:53;3.97;;;2.25;;
52962;SDS011;38827;53.024;6.596;2023-09-18T14:02:19;5.88;;;2.40;;
52962;SDS011;38827;53.024;6.596;2023-09-18T14:04:46;5.97;;;2.33;;
52962;SDS011;38827;53.024;6.596;2023-09-18T14:07:12;4.20;;;1.90;;
52962;SDS011;38827;53.024;6.596;2023-09-18T14:09:38;5.43;;;2.20;;
52962;SDS011;38827;53.024;6.596;2023-09-18T14:12:04;4.85;;;2.50;;
52962;SDS011;38827;53.024;6.596;2023-09-18T14:14:34;6.97;;;2.83;;
52962;SDS011;38827;53.024;6.596;2023-09-18T14:17:00;5.50;;;2.10;;
52962;SDS011;38827;53.024;6.596;2023-09-18T14:19:27;3.70;;;2.50;;
52962;SDS011;38827;53.024;6.596;2023-09-18T14:24:19;4.30;;;2.33;;
52962;SDS011;38827;53.024;6.596;2023-09-18T14:26:47;6.15;;;2.45;;
52962;SDS011;38827;53.024;6.596;2023-09-18T14:29:14;3.65;;;2.20;;
52962;SDS011;38827;53.024;6.596;2023-09-18T14:31:40;3.10;;;2.22;;
52962;SDS011;38827;53.024;6.596;2023-09-18T14:34:07;4.05;;;2.42;;
52962;SDS011;38827;53.024;6.596;2023-09-18T14:36:36;3.50;;;2.40;;
52962;SDS011;38827;53.024;6.596;2023-09-18T14:50:36;6.45;;;2.42;;
52962;SDS011;38827;53.024;6.596;2023-09-18T14:53:02;3.35;;;2.30;;
52962;SDS011;38827;53.024;6.596;2023-09-18T14:55:28;6.40;;;2.50;;
52962;SDS011;38827;53.024;6.596;2023-09-18T14:57:55;3.65;;;2.05;;
52962;SDS011;38827;53.024;6.596;2023-09-18T15:00:20;6.67;;;1.90;;
52962;SDS011;38827;53.024;6.596;2023-09-18T15:02:46;4.23;;;2.23;;
52962;SDS011;38827;53.024;6.596;2023-09-18T15:05:12;2.77;;;2.00;;
52962;SDS011;38827;53.024;6.596;2023-09-18T15:07:43;4.78;;;2.10;;
52962;SDS011;38827;53.024;6.596;2023-09-18T15:10:08;3.67;;;2.57;;
52962;SDS011;38827;53.024;6.596;2023-09-18T15:12:35;5.78;;;2.15;;
52962;SDS011;38827;53.024;6.596;2023-09-18T15:15:05;4.15;;;2.47;;
52962;SDS011;38827;53.024;6.596;2023-09-18T15:17:34;3.97;;;2.20;;
52962;SDS011;38827;53.024;6.596;2023-09-18T15:19:59;4.40;;;2.10;;
52962;SDS011;38827;53.024;6.596;2023-09-18T15:22:25;7.20;;;2.00;;
52962;SDS011;38827;53.024;6.596;2023-09-18T15:24:51;3.67;;;2.10;;
52962;SDS011;38827;53.024;6.596;2023-09-18T15:27:17;4.77;;;1.80;;
52962;SDS011;38827;53.024;6.596;2023-09-18T15:29:43;4.38;;;1.67;;
52962;SDS011;38827;53.024;6.596;2023-09-18T15:32:08;3.90;;;2.10;;
52962;SDS011;38827;53.024;6.596;2023-09-18T15:34:34;5.73;;;1.77;;
52962;SDS011;38827;53.024;6.596;2023-09-18T15:37:00;8.27;;;2.07;;
52962;SDS011;38827;53.024;6.596;2023-09-18T15:39:29;7.22;;;2.00;;
52962;SDS011;38827;53.024;6.596;2023-09-18T15:44:21;3.92;;;1.73;;
52962;SDS011;38827;53.024;6.596;2023-09-18T15:46:46;5.23;;;1.63;;
52962;SDS011;38827;53.024;6.596;2023-09-18T15:49:12;3.93;;;1.93;;
52962;SDS011;38827;53.024;6.596;2023-09-18T15:51:38;4.90;;;1.80;;
52962;SDS011;38827;53.024;6.596;2023-09-18T15:54:03;3.43;;;1.80;;
52962;SDS011;38827;53.024;6.596;2023-09-18T15:56:29;5.23;;;2.07;;
52962;SDS011;38827;53.024;6.596;2023-09-18T15:58:55;2.83;;;1.83;;
52962;SDS011;38827;53.024;6.596;2023-09-18T16:01:23;4.50;;;2.30;;
52962;SDS011;38827;53.024;6.596;2023-09-18T16:03:49;4.03;;;2.17;;
52962;SDS011;38827;53.024;6.596;2023-09-18T16:06:15;3.10;;;1.90;;
52962;SDS011;38827;53.024;6.596;2023-09-18T16:08:46;3.63;;;2.20;;
52962;SDS011;38827;53.024;6.596;2023-09-18T16:11:11;4.47;;;2.08;;
52962;SDS011;38827;53.024;6.596;2023-09-18T16:13:40;3.00;;;2.00;;
52962;SDS011;38827;53.024;6.596;2023-09-18T16:16:06;5.28;;;2.20;;
52962;SDS011;38827;53.024;6.596;2023-09-18T16:18:31;5.30;;;2.23;;
52962;SDS011;38827;53.024;6.596;2023-09-18T16:20:57;3.53;;;2.13;;
52962;SDS011;38827;53.024;6.596;2023-09-18T16:23:23;3.23;;;2.30;;
52962;SDS011;38827;53.024;6.596;2023-09-18T16:25:48;2.93;;;1.90;;
52962;SDS011;38827;53.024;6.596;2023-09-18T16:28:14;4.03;;;2.10;;
52962;SDS011;38827;53.024;6.596;2023-09-18T16:30:40;5.33;;;2.07;;
52962;SDS011;38827;53.024;6.596;2023-09-18T16:33:05;3.58;;;2.05;;
52962;SDS011;38827;53.024;6.596;2023-09-18T16:35:31;7.07;;;2.10;;
52962;SDS011;38827;53.024;6.596;2023-09-18T16:37:57;3.83;;;2.00;;
52962;SDS011;38827;53.024;6.596;2023-09-18T16:40:22;3.10;;;1.93;;
52962;SDS011;38827;53.024;6.596;2023-09-18T16:42:48;5.07;;;2.40;;
52962;SDS011;38827;53.024;6.596;2023-09-18T16:45:14;4.77;;;2.30;;
52962;SDS011;38827;53.024;6.596;2023-09-18T16:47:39;5.70;;;2.00;;
52962;SDS011;38827;53.024;6.596;2023-09-18T16:50:05;3.37;;;2.20;;
52962;SDS011;38827;53.024;6.596;2023-09-18T16:52:31;4.67;;;2.00;;
52962;SDS011;38827;53.024;6.596;2023-09-18T16:54:58;4.75;;;2.10;;
52962;SDS011;38827;53.024;6.596;2023-09-18T16:57:28;4.35;;;2.10;;
52962;SDS011;38827;53.024;6.596;2023-09-18T17:05:07;7.05;;;2.00;;
52962;SDS011;38827;53.024;6.596;2023-09-18T17:07:33;2.07;;;1.50;;
52962;SDS011;38827;53.024;6.596;2023-09-18T17:10:01;2.35;;;1.40;;
52962;SDS011;38827;53.024;6.596;2023-09-18T17:12:29;2.35;;;1.38;;
52962;SDS011;38827;53.024;6.596;2023-09-18T17:14:55;2.65;;;1.30;;
52962;SDS011;38827;53.024;6.596;2023-09-18T17:17:22;1.77;;;0.98;;
52962;SDS011;38827;53.024;6.596;2023-09-18T17:19:48;2.50;;;1.10;;
52962;SDS011;38827;53.024;6.596;2023-09-18T17:22:14;3.78;;;1.20;;
52962;SDS011;38827;53.024;6.596;2023-09-18T17:24:41;2.65;;;1.20;;
52962;SDS011;38827;53.024;6.596;2023-09-18T17:27:09;2.80;;;1.20;;
52962;SDS011;38827;53.024;6.596;2023-09-18T17:29:35;1.93;;;1.10;;
52962;SDS011;38827;53.024;6.596;2023-09-18T17:32:00;3.53;;;1.20;;
52962;SDS011;38827;53.024;6.596;2023-09-18T17:34:28;2.45;;;1.30;;
52962;SDS011;38827;53.024;6.596;2023-09-18T17:36:53;2.23;;;1.30;;
52962;SDS011;38827;53.024;6.596;2023-09-18T17:39:20;2.10;;;1.15;;
52962;SDS011;38827;53.024;6.596;2023-09-18T17:41:48;2.28;;;1.10;;
52962;SDS011;38827;53.024;6.596;2023-09-18T17:44:14;1.47;;;1.17;;
52962;SDS011;38827;53.024;6.596;2023-09-18T17:46:42;3.63;;;1.20;;
52962;SDS011;38827;53.024;6.596;2023-09-18T17:49:24;1.27;;;1.00;;
52962;SDS011;38827;53.024;6.596;2023-09-18T17:51:50;2.17;;;0.93;;
52962;SDS011;38827;53.024;6.596;2023-09-18T17:54:16;3.42;;;0.95;;
52962;SDS011;38827;53.024;6.596;2023-09-18T17:56:42;1.73;;;0.88;;
52962;SDS011;38827;53.024;6.596;2023-09-18T17:59:07;2.50;;;1.17;;
52962;SDS011;38827;53.024;6.596;2023-09-18T18:01:36;1.13;;;0.90;;
52962;SDS011;38827;53.024;6.596;2023-09-18T18:17:02;2.10;;;1.17;;
52962;SDS011;38827;53.024;6.596;2023-09-18T18:19:31;4.25;;;1.30;;
52962;SDS011;38827;53.024;6.596;2023-09-18T18:21:57;3.90;;;1.30;;
52962;SDS011;38827;53.024;6.596;2023-09-18T18:24:22;4.60;;;1.38;;
52962;SDS011;38827;53.024;6.596;2023-09-18T18:26:48;3.33;;;1.10;;
52962;SDS011;38827;53.024;6.596;2023-09-18T18:29:14;2.33;;;1.38;;
52962;SDS011;38827;53.024;6.596;2023-09-18T18:31:41;2.55;;;1.27;;
52962;SDS011;38827;53.024;6.596;2023-09-18T18:34:07;2.53;;;1.17;;
52962;SDS011;38827;53.024;6.596;2023-09-18T18:36:33;1.88;;;1.17;;
52962;SDS011;38827;53.024;6.596;2023-09-18T18:38:59;3.42;;;1.50;;
52962;SDS011;38827;53.024;6.596;2023-09-18T18:41:25;4.40;;;1.35;;
52962;SDS011;38827;53.024;6.596;2023-09-18T18:43:51;3.95;;;1.52;;
52962;SDS011;38827;53.024;6.596;2023-09-18T18:46:17;3.50;;;1.70;;
52962;SDS011;38827;53.024;6.596;2023-09-18T18:48:43;2.80;;;1.35;;
52962;SDS011;38827;53.024;6.596;2023-09-18T18:54:00;2.92;;;1.67;;
52962;SDS011;38827;53.024;6.596;2023-09-18T19:01:16;4.75;;;1.55;;
52962;SDS011;38827;53.024;6.596;2023-09-18T19:03:48;2.92;;;1.63;;
52962;SDS011;38827;53.024;6.596;2023-09-18T19:06:15;3.97;;;1.70;;
52962;SDS011;38827;53.024;6.596;2023-09-18T19:08:41;4.65;;;1.80;;
52962;SDS011;38827;53.024;6.596;2023-09-18T19:11:07;4.10;;;1.88;;
52962;SDS011;38827;53.024;6.596;2023-09-18T19:13:34;3.13;;;1.80;;
52962;SDS011;38827;53.024;6.596;2023-09-18T19:16:00;3.28;;;1.63;;
52962;SDS011;38827;53.024;6.596;2023-09-18T19:18:26;2.85;;;1.40;;